Mormon Island, California
Current Conditions -  °F | °C
As of 6:55 AM on Thursday 18 Dec 2014 (Local Time) from KMHR Reporting Station
Overcast Overcast  
Wind Chill: 46°   Ceiling: 5500
Heat Index: 48°   Visibility: 10mi
Dew Point: 48°   Wind: 5mph
Humidity: 100%   Direction: 80°E
Pressure: 30.16"   Gusts: NA
Location:  38.6648°N, 121.141°W
Report Text: KMHR 181455Z 08004KT 10SM OVC055 09/09 A3016
Loading
Personal Weather Stations






























Interactive Weather Map New forecast layout! Learn more

10-Day Weather Forecast

Advertisements
Track Severe Weather on mobile